Time;durP1;ratioP1;P1;durP2;ratioP2;P2;SDS_P1;SDS_P2;PMS_P1;PMS_P2;Temp;Humidity;BMP_temperature;BMP_pressure;BME280_temperature;BME280_humidity;BME280_pressure;Samples;Min_cycle;Max_cycle;Signal;HPM_P1;HPM_P2
2021/09/28 00:00:28;;;;;;;4.00;3.70;;;;;;;16.14;100.00;96741.38;5074277;28;20590;-77
2021/09/28 00:02:56;;;;;;;6.87;4.03;;;;;;;16.07;100.00;96732.50;5073746;28;20195;-77
2021/09/28 00:05:25;;;;;;;4.40;4.00;;;;;;;15.91;100.00;96725.50;5073937;28;20203;-77
2021/09/28 00:07:52;;;;;;;3.97;3.67;;;;;;;16.05;100.00;96725.72;5073724;28;20196;-77
2021/09/28 00:10:19;;;;;;;4.27;3.77;;;;;;;16.07;100.00;96729.00;5073676;28;20202;-77
2021/09/28 00:12:47;;;;;;;4.10;3.70;;;;;;;16.13;100.00;96737.03;5073691;28;20194;-77
2021/09/28 00:15:16;;;;;;;4.17;3.77;;;;;;;16.02;100.00;96737.50;5074056;28;20206;-77
2021/09/28 00:17:44;;;;;;;5.50;4.27;;;;;;;16.04;100.00;96732.03;5073559;28;20284;-77
2021/09/28 00:20:12;;;;;;;3.87;3.57;;;;;;;16.07;100.00;96727.19;5073794;28;20204;-77
2021/09/28 00:22:41;;;;;;;3.83;3.53;;;;;;;16.03;100.00;96727.72;5073891;28;20219;-77
2021/09/28 00:25:10;;;;;;;3.73;3.43;;;;;;;16.13;100.00;96731.75;5073944;28;20198;-77
2021/09/28 00:27:38;;;;;;;3.70;3.40;;;;;;;16.20;100.00;96723.88;5073393;28;20203;-77
2021/09/28 00:30:07;;;;;;;4.30;3.77;;;;;;;16.13;100.00;96722.97;5073285;28;20704;-77
2021/09/28 00:32:34;;;;;;;4.13;3.83;;;;;;;16.02;100.00;96729.53;5073353;28;20204;-76
2021/09/28 00:35:01;;;;;;;4.03;3.40;;;;;;;16.14;100.00;96728.09;5073746;28;20206;-77
2021/09/28 00:37:28;;;;;;;5.10;3.57;;;;;;;16.18;100.00;96725.91;5073129;28;20226;-77
2021/09/28 00:39:57;;;;;;;3.53;3.23;;;;;;;16.22;100.00;96729.84;5073169;28;20199;-77
2021/09/28 00:42:24;;;;;;;4.57;3.33;;;;;;;16.24;100.00;96722.50;5073095;28;20201;-77
2021/09/28 00:44:51;;;;;;;4.90;3.93;;;;;;;15.99;100.00;96715.81;5073232;28;20712;-77
2021/09/28 00:47:18;;;;;;;4.20;3.87;;;;;;;16.10;100.00;96713.53;5073084;28;20207;-77
2021/09/28 00:49:48;;;;;;;4.90;3.50;;;;;;;16.05;100.00;96717.75;5072857;28;20208;-77
2021/09/28 00:52:18;;;;;;;5.03;3.77;;;;;;;16.01;100.00;96703.22;5072910;28;20295;-77
2021/09/28 00:54:47;;;;;;;4.60;3.93;;;;;;;16.03;100.00;96707.31;5073405;28;20186;-77
2021/09/28 00:57:16;;;;;;;4.07;3.70;;;;;;;16.00;100.00;96693.59;5071895;28;20240;-77
2021/09/28 00:59:44;;;;;;;5.00;4.50;;;;;;;16.02;100.00;96696.91;5072896;28;20197;-77
2021/09/28 01:02:13;;;;;;;4.10;3.67;;;;;;;15.89;100.00;96692.22;5072929;28;20226;-77
2021/09/28 01:04:41;;;;;;;4.77;4.40;;;;;;;15.96;100.00;96687.84;5072692;28;20190;-78
2021/09/28 01:07:09;;;;;;;11.90;3.97;;;;;;;15.76;100.00;96682.28;5072941;28;20226;-77
2021/09/28 01:09:39;;;;;;;5.63;4.20;;;;;;;15.79;100.00;96681.88;5072388;28;20197;-77
2021/09/28 01:12:08;;;;;;;3.87;3.50;;;;;;;16.10;100.00;96678.25;5072685;28;20208;-77
2021/09/28 01:14:37;;;;;;;4.03;3.67;;;;;;;15.93;100.00;96674.94;5072792;28;20206;-77
2021/09/28 01:17:11;;;;;;;3.80;3.50;;;;;;;15.72;100.00;96670.34;5072545;28;20204;-77
2021/09/28 01:19:38;;;;;;;4.20;3.27;;;;;;;15.98;100.00;96663.81;5072325;28;20191;-77
2021/09/28 01:22:07;;;;;;;3.80;3.50;;;;;;;15.89;100.00;96655.94;5072835;28;20579;-77
2021/09/28 01:24:35;;;;;;;4.10;3.43;;;;;;;15.90;100.00;96662.91;5072284;28;20703;-77
2021/09/28 01:27:02;;;;;;;4.30;3.47;;;;;;;15.89;100.00;96650.63;5072337;28;20200;-77
2021/09/28 01:29:29;;;;;;;5.33;3.47;;;;;;;15.95;100.00;96648.28;5072216;28;20202;-77
2021/09/28 01:31:56;;;;;;;4.40;3.40;;;;;;;15.67;100.00;96648.91;5071947;28;20196;-77
2021/09/28 01:34:23;;;;;;;3.93;3.40;;;;;;;15.61;100.00;96633.69;5072492;28;20204;-77
2021/09/28 01:36:51;;;;;;;3.90;3.47;;;;;;;15.69;100.00;96638.94;5072180;28;20691;-78
2021/09/28 01:39:21;;;;;;;3.83;3.53;;;;;;;15.58;100.00;96639.34;5071686;28;20227;-78
2021/09/28 01:41:48;;;;;;;5.50;3.80;;;;;;;15.64;100.00;96638.63;5072448;28;20252;-77
2021/09/28 01:44:19;;;;;;;4.20;3.83;;;;;;;15.69;100.00;96645.06;5072311;28;20294;-77
2021/09/28 01:46:48;;;;;;;4.43;4.13;;;;;;;15.60;100.00;96638.16;5072168;28;20179;-78
2021/09/28 01:49:16;;;;;;;3.97;3.63;;;;;;;15.54;100.00;96640.72;5071764;28;20199;-78
2021/09/28 01:51:44;;;;;;;8.77;4.70;;;;;;;15.46;100.00;96633.66;5072079;28;20288;-78
2021/09/28 01:54:12;;;;;;;4.20;3.80;;;;;;;15.51;100.00;96627.81;5072196;28;20207;-77
2021/09/28 01:56:41;;;;;;;5.57;3.90;;;;;;;15.37;100.00;96614.38;5071722;28;20242;-77
2021/09/28 01:59:08;;;;;;;4.47;4.07;;;;;;;15.41;100.00;96615.69;5072233;28;20226;-77
2021/09/28 02:01:36;;;;;;;3.80;3.50;;;;;;;15.07;100.00;96617.97;5072052;28;20548;-77
2021/09/28 02:04:04;;;;;;;6.23;4.20;;;;;;;14.96;100.00;96616.53;5071740;28;20196;-77
2021/09/28 02:06:35;;;;;;;3.93;3.63;;;;;;;15.18;100.00;96610.41;5071954;28;20197;-77
2021/09/28 02:09:04;;;;;;;8.37;5.27;;;;;;;15.24;100.00;96614.19;5071646;28;20222;-77
2021/09/28 02:11:31;;;;;;;5.33;4.00;;;;;;;15.21;100.00;96615.34;5072113;28;20232;-77
2021/09/28 02:14:00;;;;;;;4.13;3.73;;;;;;;15.15;100.00;96612.59;5071659;28;20217;-78
2021/09/28 02:16:27;;;;;;;4.07;3.67;;;;;;;15.31;100.00;96607.16;5072107;28;20221;-77
2021/09/28 02:18:54;;;;;;;4.57;4.17;;;;;;;15.19;100.00;96600.63;5071488;28;20260;-77
2021/09/28 02:21:21;;;;;;;4.00;3.60;;;;;;;15.16;100.00;96604.47;5071690;28;20210;-77
2021/09/28 02:23:49;;;;;;;3.90;3.57;;;;;;;15.32;100.00;96606.16;5071245;28;20205;-76
2021/09/28 02:26:16;;;;;;;3.80;3.50;;;;;;;15.27;100.00;96603.22;5071637;28;20739;-76
2021/09/28 02:28:43;;;;;;;4.10;3.70;;;;;;;15.17;100.00;96603.47;5071767;28;20609;-77
2021/09/28 02:31:12;;;;;;;4.33;3.93;;;;;;;14.87;100.00;96602.56;5071413;28;20198;-77
2021/09/28 02:33:39;;;;;;;5.77;4.20;;;;;;;14.99;100.00;96601.13;5071342;28;20738;-77
2021/09/28 02:36:07;;;;;;;4.90;4.47;;;;;;;14.79;100.00;96604.44;5071970;28;20198;-77
2021/09/28 02:38:34;;;;;;;7.20;3.63;;;;;;;14.67;100.00;96596.09;5071260;28;20728;-77
2021/09/28 02:41:01;;;;;;;5.53;3.47;;;;;;;14.63;100.00;96592.97;5071307;28;20280;-77
2021/09/28 02:43:28;;;;;;;3.83;3.50;;;;;;;14.83;100.00;96595.97;5071261;28;20707;-78
2021/09/28 02:45:56;;;;;;;4.47;4.17;;;;;;;14.95;100.00;96591.91;5071766;28;20201;-77
2021/09/28 02:48:24;;;;;;;3.80;3.50;;;;;;;14.93;100.00;96591.28;5071574;28;20270;-77
2021/09/28 02:50:51;;;;;;;4.87;3.63;;;;;;;14.79;100.00;96592.06;5074702;28;20205;-77
2021/09/28 02:53:19;;;;;;;4.63;3.83;;;;;;;14.81;100.00;96594.50;5091394;28;20583;-77
2021/09/28 02:55:46;;;;;;;3.93;3.63;;;;;;;14.77;100.00;96596.69;5091290;28;20646;-77
2021/09/28 02:58:13;;;;;;;4.07;3.67;;;;;;;14.80;100.00;96590.22;5090997;28;20216;-77
2021/09/28 03:00:42;;;;;;;4.60;4.20;;;;;;;14.81;100.00;96592.69;5091861;28;20201;-77
2021/09/28 03:03:10;;;;;;;4.73;3.87;;;;;;;14.72;100.00;96593.72;5090590;28;20289;-77
2021/09/28 03:05:38;;;;;;;3.93;3.50;;;;;;;14.79;100.00;96594.69;5091378;28;20204;-77
2021/09/28 03:08:06;;;;;;;4.30;3.90;;;;;;;14.84;100.00;96599.44;5091121;28;20196;-77
2021/09/28 03:10:33;;;;;;;6.10;4.27;;;;;;;14.80;100.00;96598.97;5091438;28;20279;-77
2021/09/28 03:13:00;;;;;;;4.63;4.20;;;;;;;14.72;100.00;96599.88;5091222;28;20545;-77
2021/09/28 03:15:27;;;;;;;5.60;4.97;;;;;;;14.75;100.00;96601.31;5091547;28;20204;-77
2021/09/28 03:17:54;;;;;;;5.33;4.27;;;;;;;14.90;100.00;96602.22;5090826;28;20197;-76
2021/09/28 03:20:22;;;;;;;4.03;3.73;;;;;;;14.68;100.00;96603.03;5093764;28;20288;-77
2021/09/28 03:22:51;;;;;;;5.23;4.23;;;;;;;14.81;100.00;96607.75;5094651;28;20225;-77
2021/09/28 03:25:18;;;;;;;4.47;4.07;;;;;;;14.69;100.00;96612.63;5095108;28;20200;-77
2021/09/28 03:27:45;;;;;;;5.20;4.27;;;;;;;14.46;100.00;96609.91;5094777;28;20201;-77
2021/09/28 03:30:13;;;;;;;4.27;3.87;;;;;;;14.47;100.00;96609.72;5093210;28;20288;-77
2021/09/28 03:32:40;;;;;;;4.23;3.83;;;;;;;14.38;100.00;96607.31;5093932;28;20204;-77
2021/09/28 03:35:10;;;;;;;5.90;4.57;;;;;;;14.41;100.00;96607.81;5093973;28;20582;-77
2021/09/28 03:37:37;;;;;;;17.50;14.30;;;;;;;14.58;100.00;96605.06;5093628;28;20200;-77
2021/09/28 03:40:08;;;;;;;18.90;17.10;;;;;;;14.61;100.00;96602.91;5093809;28;20246;-77
2021/09/28 03:42:35;;;;;;;10.93;9.60;;;;;;;14.61;100.00;96602.91;5092718;28;20197;-77
2021/09/28 03:45:03;;;;;;;9.37;7.63;;;;;;;14.50;100.00;96596.19;5093669;28;20196;-77
2021/09/28 03:47:30;;;;;;;8.03;7.30;;;;;;;14.70;100.00;96598.38;5093339;28;20291;-77
2021/09/28 03:49:57;;;;;;;39.90;35.43;;;;;;;14.73;100.00;96601.50;5093415;28;20308;-77
2021/09/28 03:52:25;;;;;;;11.67;7.60;;;;;;;14.89;100.00;96605.84;5093275;28;20202;-77
2021/09/28 03:54:52;;;;;;;6.50;5.73;;;;;;;14.55;100.00;96600.13;5092944;28;20197;-80
2021/09/28 03:57:20;;;;;;;5.37;4.97;;;;;;;14.63;100.00;96603.56;5093224;28;20315;-77
2021/09/28 03:59:48;;;;;;;7.27;6.67;;;;;;;14.74;100.00;96599.69;5093460;28;20585;-77
2021/09/28 04:02:15;;;;;;;5.67;5.17;;;;;;;14.79;100.00;96601.78;5093340;28;20228;-77
2021/09/28 04:04:42;;;;;;;5.67;5.07;;;;;;;14.71;100.00;96594.72;5092852;28;20212;-77
2021/09/28 04:07:10;;;;;;;5.77;5.27;;;;;;;14.70;100.00;96599.22;5092851;28;20192;-77
2021/09/28 04:09:37;;;;;;;5.90;5.30;;;;;;;14.70;100.00;96593.09;5092796;28;20196;-77
2021/09/28 04:12:06;;;;;;;7.13;5.47;;;;;;;14.64;100.00;96605.19;5092982;28;20698;-77
2021/09/28 04:14:35;;;;;;;5.50;4.97;;;;;;;14.56;100.00;96601.78;5092572;28;20200;-77
2021/09/28 04:17:02;;;;;;;8.20;6.20;;;;;;;14.62;100.00;96601.09;5093219;28;20586;-76
2021/09/28 04:19:29;;;;;;;5.97;5.37;;;;;;;14.60;100.00;96600.44;5092967;28;20212;-77
2021/09/28 04:21:56;;;;;;;6.10;5.60;;;;;;;14.67;100.00;96606.69;5092572;28;20207;-77
2021/09/28 04:24:24;;;;;;;5.57;5.17;;;;;;;14.47;100.00;96615.03;5093247;28;20705;-77
2021/09/28 04:26:51;;;;;;;7.77;6.10;;;;;;;14.43;100.00;96605.78;5094086;28;20203;-77
2021/09/28 04:29:18;;;;;;;7.70;6.83;;;;;;;14.53;100.00;96618.00;5093781;28;20606;-77
2021/09/28 04:31:47;;;;;;;7.30;6.60;;;;;;;14.47;100.00;96614.19;5092718;28;20207;-76
2021/09/28 04:34:14;;;;;;;6.43;5.83;;;;;;;14.61;100.00;96615.31;5093465;28;20665;-76
2021/09/28 04:36:41;;;;;;;5.83;5.33;;;;;;;14.60;100.00;96611.84;5093366;28;20196;-77
2021/09/28 04:39:08;;;;;;;5.70;5.20;;;;;;;14.65;100.00;96603.38;5093295;28;20230;-77
2021/09/28 04:41:36;;;;;;;6.03;5.47;;;;;;;14.58;100.00;96615.66;5094057;28;20224;-77
2021/09/28 04:44:03;;;;;;;10.57;5.67;;;;;;;14.49;100.00;96626.25;5093495;28;20203;-77
2021/09/28 04:46:30;;;;;;;6.97;5.70;;;;;;;14.44;100.00;96625.97;5093181;28;20208;-77
2021/09/28 04:48:59;;;;;;;10.17;5.63;;;;;;;14.44;100.00;96625.97;5093216;28;20189;-77
2021/09/28 04:51:26;;;;;;;9.93;6.73;;;;;;;14.41;100.00;96628.97;5093544;28;20201;-77
2021/09/28 04:53:53;;;;;;;6.13;5.40;;;;;;;14.40;100.00;96626.47;5093074;28;20695;-77
2021/09/28 04:56:21;;;;;;;6.33;5.70;;;;;;;14.42;100.00;96622.66;5092890;28;20233;-76
2021/09/28 04:58:48;;;;;;;7.50;5.67;;;;;;;14.59;100.00;96625.25;5092923;28;20220;-77
2021/09/28 05:01:15;;;;;;;6.30;5.70;;;;;;;14.61;100.00;96625.88;5093507;28;20200;-77
2021/09/28 05:03:43;;;;;;;12.73;5.83;;;;;;;14.70;100.00;96627.50;5092720;28;20201;-77
2021/09/28 05:06:13;;;;;;;10.03;6.13;;;;;;;14.21;100.00;96641.78;5093112;28;20558;-76
2021/09/28 05:08:41;;;;;;;10.00;6.93;;;;;;;14.49;100.00;96636.84;5093360;28;20192;-77
2021/09/28 05:11:10;;;;;;;12.93;7.40;;;;;;;14.27;100.00;96640.28;5092783;28;20197;-76
2021/09/28 05:13:38;;;;;;;14.50;8.87;;;;;;;14.20;100.00;96641.94;5092711;28;20194;-77
2021/09/28 05:16:05;;;;;;;11.17;8.17;;;;;;;14.53;100.00;96642.63;5093232;28;20612;-77
2021/09/28 05:18:33;;;;;;;13.00;7.07;;;;;;;14.72;100.00;96636.91;5092536;28;20287;-76
2021/09/28 05:21:00;;;;;;;9.57;7.33;;;;;;;14.89;100.00;96634.94;5092877;28;20200;-77
2021/09/28 05:23:29;;;;;;;12.63;7.87;;;;;;;14.76;100.00;96642.66;5092622;28;20196;-77
2021/09/28 05:25:57;;;;;;;12.33;9.30;;;;;;;14.91;100.00;96640.91;5093012;28;20215;-77
2021/09/28 05:28:24;;;;;;;10.87;8.60;;;;;;;15.02;100.00;96637.00;5092462;28;20275;-76
2021/09/28 05:30:54;;;;;;;10.40;7.83;;;;;;;15.05;100.00;96635.84;5092713;28;20196;-77
2021/09/28 05:33:21;;;;;;;8.97;7.40;;;;;;;15.11;100.00;96635.13;5092417;28;20200;-77
2021/09/28 05:35:49;;;;;;;7.73;6.97;;;;;;;15.23;100.00;96641.66;5092949;28;20197;-77
2021/09/28 05:38:16;;;;;;;12.20;6.33;;;;;;;15.03;100.00;96640.47;5092734;28;20243;-77
2021/09/28 05:40:45;;;;;;;14.67;7.57;;;;;;;15.31;100.00;96638.94;5092385;28;20268;-77
2021/09/28 05:43:12;;;;;;;12.33;7.33;;;;;;;15.39;100.00;96646.81;5092101;28;20204;-77
2021/09/28 05:45:39;;;;;;;9.23;7.87;;;;;;;15.41;100.00;96646.63;5092355;28;20283;-77
2021/09/28 05:48:06;;;;;;;11.97;6.80;;;;;;;15.23;100.00;96653.06;5092292;28;20249;-77
2021/09/28 05:50:34;;;;;;;13.60;7.30;;;;;;;15.15;100.00;96647.84;5092637;28;20213;-77
2021/09/28 05:53:06;;;;;;;8.40;7.47;;;;;;;14.95;100.00;96649.31;5092050;28;20200;-77
2021/09/28 05:55:34;;;;;;;10.37;7.30;;;;;;;15.02;100.00;96652.06;5092365;28;20182;-77
2021/09/28 05:58:02;;;;;;;8.50;7.70;;;;;;;15.04;100.00;96661.50;5091885;28;20233;-77
2021/09/28 06:00:30;;;;;;;10.97;7.83;;;;;;;15.22;100.00;96667.31;5092047;28;20224;-77
2021/09/28 06:02:57;;;;;;;9.27;7.73;;;;;;;15.54;100.00;96662.72;5092307;28;20202;-77
2021/09/28 06:05:25;;;;;;;9.90;7.57;;;;;;;15.53;100.00;96666.38;5087974;28;20216;-77
2021/09/28 06:07:52;;;;;;;12.30;9.23;;;;;;;15.48;100.00;96659.97;5091247;28;20210;-77
2021/09/28 06:10:19;;;;;;;10.63;8.33;;;;;;;15.62;100.00;96657.38;5091951;28;20199;-77
2021/09/28 06:12:46;;;;;;;7.60;6.90;;;;;;;15.79;100.00;96659.88;5091865;28;20197;-77
2021/09/28 06:15:15;;;;;;;9.30;8.40;;;;;;;16.06;100.00;96661.06;5091683;28;20198;-77
2021/09/28 06:17:42;;;;;;;8.33;7.10;;;;;;;16.21;100.00;96672.50;5091904;28;20206;-77
2021/09/28 06:20:11;;;;;;;8.40;7.67;;;;;;;16.27;100.00;96668.28;5091605;28;20218;-77
2021/09/28 06:22:39;;;;;;;11.60;7.63;;;;;;;16.34;100.00;96669.19;5090962;28;20198;-77
2021/09/28 06:25:07;;;;;;;8.10;7.33;;;;;;;16.34;100.00;96663.88;5090081;28;20287;-77
2021/09/28 06:27:35;;;;;;;11.40;8.13;;;;;;;16.37;100.00;96669.63;5091213;28;20197;-77
2021/09/28 06:30:03;;;;;;;9.00;7.03;;;;;;;16.24;100.00;96669.47;5091845;28;20225;-77
2021/09/28 06:32:32;;;;;;;9.47;8.10;;;;;;;16.31;100.00;96673.00;5091688;28;20198;-77
2021/09/28 06:34:59;;;;;;;8.67;7.87;;;;;;;16.43;100.00;96668.09;5091873;28;20205;-77
2021/09/28 06:37:27;;;;;;;11.93;8.10;;;;;;;16.37;100.00;96674.94;5091841;28;20201;-77
2021/09/28 06:39:54;;;;;;;8.20;7.40;;;;;;;16.37;100.00;96671.47;5091448;28;20223;-77
2021/09/28 06:42:21;;;;;;;8.37;7.50;;;;;;;16.36;100.00;96675.13;5091541;28;20206;-77
2021/09/28 06:44:48;;;;;;;10.67;7.73;;;;;;;16.21;100.00;96669.84;5091567;28;20578;-76
2021/09/28 06:47:15;;;;;;;9.87;8.43;;;;;;;16.37;100.00;96679.44;5091666;28;20203;-77
2021/09/28 06:49:45;;;;;;;8.67;7.77;;;;;;;16.55;100.00;96681.69;5091441;28;20288;-77
2021/09/28 06:52:12;;;;;;;9.00;8.00;;;;;;;16.77;100.00;96677.28;5091470;28;20253;-77
2021/09/28 06:54:40;;;;;;;10.67;8.13;;;;;;;16.92;100.00;96679.91;5093070;28;20291;-78
2021/09/28 06:57:07;;;;;;;8.83;7.97;;;;;;;17.11;100.00;96680.09;5095110;28;20246;-77
2021/09/28 06:59:34;;;;;;;7.93;7.33;;;;;;;17.08;100.00;96682.31;5095291;28;20228;-77
2021/09/28 07:02:01;;;;;;;9.97;6.90;;;;;;;17.05;100.00;96683.50;5095402;28;20203;-77
2021/09/28 07:04:29;;;;;;;9.20;8.40;;;;;;;17.07;100.00;96691.28;5094920;28;20199;-77
2021/09/28 07:06:59;;;;;;;9.47;8.37;;;;;;;17.14;100.00;96681.53;5095293;28;20203;-78
2021/09/28 07:09:26;;;;;;;9.73;8.67;;;;;;;17.22;100.00;96689.41;5095368;28;20199;-77
2021/09/28 07:11:53;;;;;;;9.57;8.73;;;;;;;17.30;100.00;96691.91;5095347;28;20204;-77
2021/09/28 07:14:21;;;;;;;10.03;9.17;;;;;;;17.32;100.00;96687.25;5094914;28;20211;-78
2021/09/28 07:16:48;;;;;;;8.50;7.77;;;;;;;16.95;100.00;96695.44;5095048;28;20278;-77
2021/09/28 07:19:15;;;;;;;8.07;7.27;;;;;;;17.01;100.00;96697.38;5094688;28;20193;-78
2021/09/28 07:21:42;;;;;;;11.83;8.23;;;;;;;17.03;100.00;96684.69;5095117;28;20199;-78
2021/09/28 07:24:12;;;;;;;8.63;7.87;;;;;;;17.13;100.00;96695.03;5094625;28;20208;-78
2021/09/28 07:26:39;;;;;;;8.43;7.63;;;;;;;17.22;100.00;96692.06;5095241;28;20683;-77
2021/09/28 07:29:06;;;;;;;8.87;7.97;;;;;;;17.43;100.00;96690.41;5094353;28;20207;-77
2021/09/28 07:31:34;;;;;;;9.00;8.10;;;;;;;17.49;100.00;96692.28;5094742;28;20238;-77
2021/09/28 07:34:01;;;;;;;10.53;8.90;;;;;;;17.45;100.00;96689.19;5094600;28;20196;-78
2021/09/28 07:36:28;;;;;;;9.77;8.87;;;;;;;17.62;100.00;96689.72;5094756;28;20228;-77
2021/09/28 07:38:55;;;;;;;9.00;8.10;;;;;;;17.77;100.00;96687.03;5094519;28;20214;-78
2021/09/28 07:41:24;;;;;;;8.50;7.80;;;;;;;17.71;100.00;96687.78;5094199;28;20268;-78
2021/09/28 07:43:51;;;;;;;9.23;7.03;;;;;;;17.90;100.00;96680.97;5092853;28;20200;-77
2021/09/28 07:46:18;;;;;;;8.60;7.90;;;;;;;17.72;100.00;96692.88;5093587;28;20707;-77
2021/09/28 07:48:45;;;;;;;8.63;7.77;;;;;;;18.20;100.00;96687.72;5094656;28;20590;-77
2021/09/28 07:51:14;;;;;;;10.37;7.53;;;;;;;18.60;100.00;96693.25;5094138;28;20196;-78
2021/09/28 07:53:41;;;;;;;10.33;9.00;;;;;;;18.98;100.00;96708.75;5094233;28;20193;-78
2021/09/28 07:56:09;;;;;;;9.70;8.80;;;;;;;19.57;100.00;96708.03;5093948;28;20712;-78
2021/09/28 07:58:37;;;;;;;8.87;8.07;;;;;;;19.07;100.00;96717.38;5094507;28;20180;-77
2021/09/28 08:01:04;;;;;;;9.53;7.87;;;;;;;19.04;100.00;96709.78;5093755;28;20231;-77
2021/09/28 08:03:32;;;;;;;10.77;9.50;;;;;;;18.72;100.00;96704.16;5091938;28;20680;-77
2021/09/28 08:05:59;;;;;;;9.17;7.83;;;;;;;18.79;100.00;96699.69;5075253;28;20211;-77
2021/09/28 08:08:26;;;;;;;10.07;9.20;;;;;;;18.92;100.00;96696.25;5085573;28;20200;-77
2021/09/28 08:10:55;;;;;;;9.33;8.53;;;;;;;19.07;100.00;96696.06;5086351;28;20200;-77
2021/09/28 08:13:22;;;;;;;10.07;9.17;;;;;;;19.06;100.00;96697.91;5094035;28;20192;-78
2021/09/28 08:15:51;;;;;;;9.77;8.97;;;;;;;19.10;100.00;96696.50;5091995;28;20196;-78
2021/09/28 08:18:18;;;;;;;10.87;9.47;;;;;;;18.98;100.00;96695.41;5084848;28;20251;-77
2021/09/28 08:20:46;;;;;;;10.60;9.60;;;;;;;19.02;100.00;96688.69;5076498;28;20225;-77
2021/09/28 08:23:14;;;;;;;9.87;8.97;;;;;;;19.08;100.00;96711.84;5089517;28;20204;-78
2021/09/28 08:25:49;;;;;;;10.57;8.63;;;;;;;18.63;100.00;96714.13;5093254;28;20577;-78
2021/09/28 08:31:05;;;;;;;10.57;9.67;;;;;;;19.08;100.00;96708.38;5073633;28;20231;-78
2021/09/28 08:33:34;;;;;;;10.43;9.43;;;;;;;18.86;100.00;96702.38;5073100;28;20276;-78
2021/09/28 08:36:02;;;;;;;10.87;9.83;;;;;;;18.95;100.00;96706.50;5073688;28;20230;-78
2021/09/28 08:38:30;;;;;;;10.27;9.37;;;;;;;18.95;100.00;96709.97;5073150;28;20201;-78
2021/09/28 08:40:58;;;;;;;10.90;9.57;;;;;;;18.67;100.00;96718.03;5073140;28;20221;-78
2021/09/28 08:43:26;;;;;;;10.23;9.27;;;;;;;18.43;100.00;96699.91;5073365;28;20201;-78
2021/09/28 08:45:53;;;;;;;11.17;10.27;;;;;;;18.64;100.00;96697.16;5073042;28;20200;-78
2021/09/28 08:48:22;;;;;;;11.03;9.67;;;;;;;18.73;100.00;96693.28;5073081;28;20205;-78
2021/09/28 08:50:52;;;;;;;10.70;9.70;;;;;;;18.91;100.00;96691.91;5085688;28;20283;-78
2021/09/28 08:53:20;;;;;;;10.50;9.50;;;;;;;19.00;100.00;96688.06;5093411;28;20200;-78
2021/09/28 08:55:48;;;;;;;10.07;9.13;;;;;;;18.91;100.00;96695.44;5093017;28;20196;-78
2021/09/28 08:58:17;;;;;;;11.33;8.87;;;;;;;19.04;100.00;96689.28;5092958;28;20184;-79
2021/09/28 09:00:45;;;;;;;10.03;9.10;;;;;;;19.08;100.00;96695.03;5093250;28;20228;-78
2021/09/28 09:03:29;;;;;;;10.73;9.73;;;;;;;19.01;100.00;96687.03;5092866;28;20678;-78
2021/09/28 09:05:58;;;;;;;9.10;7.90;;;;;;;19.05;100.00;96696.28;5091412;28;20192;-78
2021/09/28 09:08:27;;;;;;;12.60;9.40;;;;;;;18.82;100.00;96698.47;5092850;28;20196;-78
2021/09/28 09:11:02;;;;;;;9.23;8.30;;;;;;;18.70;100.00;96698.16;5093308;28;20700;-77
2021/09/28 09:13:37;;;;;;;12.57;9.43;;;;;;;18.89;100.00;96691.31;5092831;28;20287;-78
2021/09/28 09:16:05;;;;;;;8.60;7.37;;;;;;;18.93;100.00;96697.88;5092818;28;20199;-78
2021/09/28 09:18:35;;;;;;;11.97;8.47;;;;;;;18.84;100.00;96691.06;5092368;28;20218;-78
2021/09/28 09:21:04;;;;;;;9.23;8.33;;;;;;;18.81;100.00;96689.66;5092613;28;20212;-78
2021/09/28 09:23:35;;;;;;;9.23;8.33;;;;;;;18.93;100.00;96692.56;5092474;28;20199;-78
2021/09/28 09:26:12;;;;;;;9.73;8.70;;;;;;;19.01;100.00;96684.38;5092472;28;20189;-78
2021/09/28 09:28:41;;;;;;;9.33;8.53;;;;;;;19.04;100.00;96691.16;5092626;28;20181;-77
2021/09/28 09:31:14;;;;;;;8.93;8.23;;;;;;;19.05;100.00;96687.44;5092321;28;20202;-78
2021/09/28 09:33:45;;;;;;;8.80;8.00;;;;;;;19.14;100.00;96692.41;5092285;28;20185;-78
2021/09/28 09:36:16;;;;;;;10.13;9.13;;;;;;;19.03;100.00;96692.19;5092655;28;20191;-78
2021/09/28 09:38:46;;;;;;;10.13;8.87;;;;;;;19.11;100.00;96694.63;5092478;28;20184;-78
2021/09/28 09:41:13;;;;;;;11.40;8.23;;;;;;;19.13;100.00;96693.44;5092512;28;20226;-77
2021/09/28 09:43:42;;;;;;;12.90;9.33;;;;;;;19.29;100.00;96694.06;5092336;28;20200;-78
2021/09/28 09:46:16;;;;;;;11.27;8.43;;;;;;;19.26;100.00;96695.31;5092770;28;20203;-78
2021/09/28 09:48:46;;;;;;;9.07;8.37;;;;;;;19.28;100.00;96693.22;5091034;28;20204;-78
2021/09/28 09:51:15;;;;;;;10.63;7.57;;;;;;;19.36;100.00;96693.06;5080596;28;20740;-78
2021/09/28 09:53:58;;;;;;;8.10;7.40;;;;;;;19.29;100.00;96696.72;5091788;28;20287;-78
2021/09/28 09:56:45;;;;;;;8.70;7.90;;;;;;;19.25;100.00;96697.13;5091751;28;20229;-77
2021/09/28 09:59:14;;;;;;;8.60;7.80;;;;;;;19.31;100.00;96687.50;5091990;28;20632;-78
2021/09/28 10:01:41;;;;;;;9.10;8.03;;;;;;;19.37;100.00;96692.03;5091969;28;20253;-77
2021/09/28 10:04:11;;;;;;;12.30;8.37;;;;;;;19.27;100.00;96696.13;5091479;28;20196;-78
2021/09/28 10:06:39;;;;;;;9.30;8.40;;;;;;;19.40;100.00;96696.13;5092413;28;20586;-78
2021/09/28 10:09:11;;;;;;;8.47;7.77;;;;;;;19.35;100.00;96706.56;5091779;28;20197;-78
2021/09/28 10:11:40;;;;;;;10.07;9.17;;;;;;;19.55;100.00;96701.28;5090880;28;20533;-77
2021/09/28 10:14:07;;;;;;;9.20;8.43;;;;;;;19.74;100.00;96705.78;5090914;28;20194;-77
2021/09/28 10:16:40;;;;;;;10.53;8.00;;;;;;;19.98;100.00;96700.88;5091190;28;20204;-78
2021/09/28 10:19:50;;;;;;;8.70;7.87;;;;;;;20.51;100.00;96720.31;5091005;28;20192;-78
2021/09/28 10:22:48;;;;;;;11.97;9.20;;;;;;;21.42;100.00;96719.28;5047935;28;20221;-78
2021/09/28 10:25:38;;;;;;;9.27;8.57;;;;;;;21.81;100.00;96723.50;5048331;28;20201;-78
2021/09/28 10:28:32;;;;;;;9.40;8.47;;;;;;;21.43;100.00;96715.56;5048337;28;20586;-78
2021/09/28 10:31:01;;;;;;;8.83;8.10;;;;;;;20.85;100.00;96718.31;5052565;28;20186;-78
2021/09/28 10:33:34;;;;;;;11.23;9.33;;;;;;;20.97;100.00;96715.81;5052314;28;20247;-78
2021/09/28 10:36:06;;;;;;;9.43;8.53;;;;;;;20.60;100.00;96716.34;5052155;28;20185;-78
2021/09/28 10:38:53;;;;;;;10.23;9.27;;;;;;;20.35;100.00;96723.38;5052536;28;20231;-78
2021/09/28 10:41:43;;;;;;;17.30;8.37;;;;;;;20.25;100.00;96721.16;5052332;28;20225;-77
2021/09/28 10:44:44;;;;;;;9.37;8.67;;;;;;;20.16;100.00;96715.22;5052103;28;20273;-77
2021/09/28 10:47:45;;;;;;;12.43;9.83;;;;;;;20.12;100.00;96710.50;5052246;28;20194;-78
2021/09/28 10:50:23;;;;;;;10.27;9.37;;;;;;;20.19;100.00;96714.81;5051571;28;20254;-78
2021/09/28 10:52:54;;;;;;;9.13;8.43;;;;;;;20.17;100.00;96716.84;5069056;28;20250;-77
2021/09/28 10:55:27;;;;;;;8.23;7.43;;;;;;;20.05;100.00;96710.50;5094989;28;20275;-78
2021/09/28 10:58:04;;;;;;;9.37;8.50;;;;;;;19.81;100.00;96711.97;5095426;28;20236;-78
2021/09/28 11:01:12;;;;;;;10.73;7.67;;;;;;;19.77;100.00;96705.38;5095364;28;20678;-78
2021/09/28 11:04:04;;;;;;;8.60;7.73;;;;;;;19.94;100.00;96711.94;5095442;28;20227;-78
2021/09/28 11:06:47;;;;;;;8.73;7.73;;;;;;;19.99;100.00;96705.19;5095415;28;20224;-77
2021/09/28 11:09:16;;;;;;;11.40;9.00;;;;;;;19.92;100.00;96711.34;5095327;28;20196;-78
2021/09/28 11:11:46;;;;;;;9.23;8.47;;;;;;;19.83;100.00;96699.25;5095054;28;20202;-77
2021/09/28 11:14:13;;;;;;;11.23;9.20;;;;;;;19.85;100.00;96709.72;5095202;28;20196;-78
2021/09/28 11:16:41;;;;;;;10.47;9.57;;;;;;;19.90;100.00;96704.56;5095574;28;20196;-78
2021/09/28 11:19:09;;;;;;;9.50;8.57;;;;;;;19.91;100.00;96707.03;5095363;28;20299;-77
2021/09/28 11:21:41;;;;;;;10.93;8.70;;;;;;;19.94;100.00;96706.59;5093872;28;20227;-78
2021/09/28 11:24:10;;;;;;;7.90;7.30;;;;;;;20.09;100.00;96711.75;5094121;28;20188;-78
2021/09/28 11:26:42;;;;;;;9.07;7.63;;;;;;;19.92;100.00;96713.19;5095055;28;20275;-78
2021/09/28 11:29:11;;;;;;;8.97;8.00;;;;;;;20.19;100.00;96704.13;5090768;28;20204;-78
2021/09/28 11:31:41;;;;;;;9.53;7.93;;;;;;;20.33;100.00;96701.41;5093795;28;20207;-78
2021/09/28 11:34:09;;;;;;;10.13;8.20;;;;;;;19.93;100.00;96704.97;5093838;28;20287;-78